sensor_id;sensor_type;location;lat;lon;timestamp;temperature;humidity
19522;DHT22;9905;52.126;5.596;2022-09-09T00:02:19;15.90;99.90
19522;DHT22;9905;52.126;5.596;2022-09-09T00:04:52;15.90;99.90
19522;DHT22;9905;52.126;5.596;2022-09-09T00:07:24;15.80;99.90
19522;DHT22;9905;52.126;5.596;2022-09-09T00:10:00;15.70;99.90
19522;DHT22;9905;52.126;5.596;2022-09-09T00:12:34;15.80;99.90
19522;DHT22;9905;52.126;5.596;2022-09-09T00:15:07;15.80;99.90
19522;DHT22;9905;52.126;5.596;2022-09-09T00:17:44;15.70;99.90
19522;DHT22;9905;52.126;5.596;2022-09-09T00:20:16;15.70;99.90
19522;DHT22;9905;52.126;5.596;2022-09-09T00:22:48;15.70;99.90
19522;DHT22;9905;52.126;5.596;2022-09-09T00:25:26;15.70;99.90
19522;DHT22;9905;52.126;5.596;2022-09-09T00:27:54;15.80;99.90
19522;DHT22;9905;52.126;5.596;2022-09-09T00:30:24;15.80;99.90
19522;DHT22;9905;52.126;5.596;2022-09-09T00:32:54;15.80;99.90
19522;DHT22;9905;52.126;5.596;2022-09-09T00:35:25;15.80;99.90
19522;DHT22;9905;52.126;5.596;2022-09-09T00:37:56;15.70;99.90
19522;DHT22;9905;52.126;5.596;2022-09-09T00:40:29;15.70;99.90
19522;DHT22;9905;52.126;5.596;2022-09-09T00:43:17;15.70;99.90
19522;DHT22;9905;52.126;5.596;2022-09-09T00:46:05;15.60;99.90
19522;DHT22;9905;52.126;5.596;2022-09-09T00:48:44;15.70;99.90
19522;DHT22;9905;52.126;5.596;2022-09-09T00:51:17;15.60;99.90
19522;DHT22;9905;52.126;5.596;2022-09-09T00:54:07;15.60;99.90
19522;DHT22;9905;52.126;5.596;2022-09-09T00:56:42;15.60;99.90
19522;DHT22;9905;52.126;5.596;2022-09-09T00:59:22;15.50;99.90
19522;DHT22;9905;52.126;5.596;2022-09-09T01:01:51;15.40;99.90
19522;DHT22;9905;52.126;5.596;2022-09-09T01:04:22;15.30;99.90
19522;DHT22;9905;52.126;5.596;2022-09-09T01:06:59;15.20;99.90
19522;DHT22;9905;52.126;5.596;2022-09-09T01:09:32;15.20;99.90
19522;DHT22;9905;52.126;5.596;2022-09-09T01:12:09;15.20;99.90
19522;DHT22;9905;52.126;5.596;2022-09-09T01:14:40;15.20;99.90
19522;DHT22;9905;52.126;5.596;2022-09-09T01:17:14;15.20;99.90
19522;DHT22;9905;52.126;5.596;2022-09-09T01:19:54;15.20;99.90
19522;DHT22;9905;52.126;5.596;2022-09-09T01:22:29;15.00;99.90
19522;DHT22;9905;52.126;5.596;2022-09-09T01:25:20;15.00;99.90
19522;DHT22;9905;52.126;5.596;2022-09-09T01:27:50;14.90;99.90
19522;DHT22;9905;52.126;5.596;2022-09-09T01:30:18;15.00;99.90
19522;DHT22;9905;52.126;5.596;2022-09-09T01:32:46;14.90;99.90
19522;DHT22;9905;52.126;5.596;2022-09-09T01:35:29;15.00;99.90
19522;DHT22;9905;52.126;5.596;2022-09-09T01:37:58;15.00;99.90
19522;DHT22;9905;52.126;5.596;2022-09-09T01:40:26;15.00;99.90
19522;DHT22;9905;52.126;5.596;2022-09-09T01:42:54;15.10;99.90
19522;DHT22;9905;52.126;5.596;2022-09-09T01:45:22;15.10;99.90
19522;DHT22;9905;52.126;5.596;2022-09-09T01:47:50;15.10;99.90
19522;DHT22;9905;52.126;5.596;2022-09-09T01:50:18;15.10;99.90
19522;DHT22;9905;52.126;5.596;2022-09-09T01:52:48;15.10;99.90
19522;DHT22;9905;52.126;5.596;2022-09-09T01:55:16;15.00;99.90
19522;DHT22;9905;52.126;5.596;2022-09-09T01:57:50;15.00;99.90
19522;DHT22;9905;52.126;5.596;2022-09-09T02:00:24;14.90;99.90
19522;DHT22;9905;52.126;5.596;2022-09-09T02:02:59;14.80;99.90
19522;DHT22;9905;52.126;5.596;2022-09-09T02:05:34;14.80;99.90
19522;DHT22;9905;52.126;5.596;2022-09-09T02:08:05;14.80;99.90
19522;DHT22;9905;52.126;5.596;2022-09-09T02:10:37;14.70;99.90
19522;DHT22;9905;52.126;5.596;2022-09-09T02:13:10;14.70;99.90
19522;DHT22;9905;52.126;5.596;2022-09-09T02:15:43;14.70;99.90
19522;DHT22;9905;52.126;5.596;2022-09-09T02:18:13;14.70;99.90
19522;DHT22;9905;52.126;5.596;2022-09-09T02:20:45;14.60;99.90
19522;DHT22;9905;52.126;5.596;2022-09-09T02:23:12;14.60;99.90
19522;DHT22;9905;52.126;5.596;2022-09-09T02:25:41;14.60;99.90
19522;DHT22;9905;52.126;5.596;2022-09-09T02:28:10;14.60;99.90
19522;DHT22;9905;52.126;5.596;2022-09-09T02:30:40;14.70;99.90
19522;DHT22;9905;52.126;5.596;2022-09-09T02:33:08;14.60;99.90
19522;DHT22;9905;52.126;5.596;2022-09-09T02:35:38;14.60;99.90
19522;DHT22;9905;52.126;5.596;2022-09-09T02:38:09;14.60;99.90
19522;DHT22;9905;52.126;5.596;2022-09-09T02:40:37;14.50;99.90
19522;DHT22;9905;52.126;5.596;2022-09-09T02:43:04;14.60;99.90
19522;DHT22;9905;52.126;5.596;2022-09-09T02:45:36;14.60;99.90
19522;DHT22;9905;52.126;5.596;2022-09-09T02:48:11;14.60;99.90
19522;DHT22;9905;52.126;5.596;2022-09-09T02:50:45;14.60;99.90
19522;DHT22;9905;52.126;5.596;2022-09-09T02:53:17;14.60;99.90
19522;DHT22;9905;52.126;5.596;2022-09-09T02:55:47;14.50;99.90
19522;DHT22;9905;52.126;5.596;2022-09-09T02:58:16;14.60;99.90
19522;DHT22;9905;52.126;5.596;2022-09-09T03:00:45;14.50;99.90
19522;DHT22;9905;52.126;5.596;2022-09-09T03:03:14;14.50;99.90
19522;DHT22;9905;52.126;5.596;2022-09-09T03:05:42;14.50;99.90
19522;DHT22;9905;52.126;5.596;2022-09-09T03:08:08;14.50;99.90
19522;DHT22;9905;52.126;5.596;2022-09-09T03:10:35;14.50;99.90
19522;DHT22;9905;52.126;5.596;2022-09-09T03:13:03;14.50;99.90
19522;DHT22;9905;52.126;5.596;2022-09-09T03:15:30;14.50;99.90
19522;DHT22;9905;52.126;5.596;2022-09-09T03:17:57;14.50;99.90
19522;DHT22;9905;52.126;5.596;2022-09-09T03:20:27;14.40;99.90
19522;DHT22;9905;52.126;5.596;2022-09-09T03:22:55;14.40;99.90
19522;DHT22;9905;52.126;5.596;2022-09-09T03:25:22;14.40;99.90
19522;DHT22;9905;52.126;5.596;2022-09-09T03:27:50;14.30;99.90
19522;DHT22;9905;52.126;5.596;2022-09-09T03:30:19;14.40;99.90
19522;DHT22;9905;52.126;5.596;2022-09-09T03:32:46;14.40;99.90
19522;DHT22;9905;52.126;5.596;2022-09-09T03:35:13;14.40;99.90
19522;DHT22;9905;52.126;5.596;2022-09-09T03:37:42;14.40;99.90
19522;DHT22;9905;52.126;5.596;2022-09-09T03:40:09;14.30;99.90
19522;DHT22;9905;52.126;5.596;2022-09-09T03:42:36;14.30;99.90
19522;DHT22;9905;52.126;5.596;2022-09-09T03:45:04;14.30;99.90
19522;DHT22;9905;52.126;5.596;2022-09-09T03:47:31;14.40;99.90
19522;DHT22;9905;52.126;5.596;2022-09-09T03:49:57;14.40;99.90
19522;DHT22;9905;52.126;5.596;2022-09-09T03:52:24;14.40;99.90
19522;DHT22;9905;52.126;5.596;2022-09-09T03:54:53;14.40;99.90
19522;DHT22;9905;52.126;5.596;2022-09-09T03:57:20;14.40;99.90
19522;DHT22;9905;52.126;5.596;2022-09-09T03:59:47;14.40;99.90
19522;DHT22;9905;52.126;5.596;2022-09-09T04:02:13;14.40;99.90
19522;DHT22;9905;52.126;5.596;2022-09-09T04:04:40;14.40;99.90
19522;DHT22;9905;52.126;5.596;2022-09-09T04:07:07;14.40;99.90
19522;DHT22;9905;52.126;5.596;2022-09-09T04:09:34;14.40;99.90
19522;DHT22;9905;52.126;5.596;2022-09-09T04:12:02;14.30;99.90
19522;DHT22;9905;52.126;5.596;2022-09-09T04:14:29;14.40;99.90
19522;DHT22;9905;52.126;5.596;2022-09-09T04:16:56;14.40;99.90
19522;DHT22;9905;52.126;5.596;2022-09-09T04:19:25;14.40;99.90
19522;DHT22;9905;52.126;5.596;2022-09-09T04:21:52;14.40;99.90
19522;DHT22;9905;52.126;5.596;2022-09-09T04:24:18;14.40;99.90
19522;DHT22;9905;52.126;5.596;2022-09-09T04:26:45;14.40;99.90
19522;DHT22;9905;52.126;5.596;2022-09-09T04:29:13;14.40;99.90
19522;DHT22;9905;52.126;5.596;2022-09-09T04:31:40;14.40;99.90
19522;DHT22;9905;52.126;5.596;2022-09-09T04:34:07;14.40;99.90
19522;DHT22;9905;52.126;5.596;2022-09-09T04:36:34;14.30;99.90
19522;DHT22;9905;52.126;5.596;2022-09-09T04:39:01;14.40;99.90
19522;DHT22;9905;52.126;5.596;2022-09-09T04:41:28;14.40;99.90
19522;DHT22;9905;52.126;5.596;2022-09-09T04:43:57;14.40;99.90
19522;DHT22;9905;52.126;5.596;2022-09-09T04:46:25;14.30;99.90
19522;DHT22;9905;52.126;5.596;2022-09-09T04:48:52;14.40;99.90
19522;DHT22;9905;52.126;5.596;2022-09-09T04:51:19;14.40;99.90
19522;DHT22;9905;52.126;5.596;2022-09-09T04:53:46;14.40;99.90
19522;DHT22;9905;52.126;5.596;2022-09-09T04:56:15;14.40;99.90
19522;DHT22;9905;52.126;5.596;2022-09-09T04:58:42;14.40;99.90
19522;DHT22;9905;52.126;5.596;2022-09-09T05:01:10;14.40;99.90
19522;DHT22;9905;52.126;5.596;2022-09-09T05:03:39;14.50;99.90
19522;DHT22;9905;52.126;5.596;2022-09-09T05:06:07;14.40;99.90
19522;DHT22;9905;52.126;5.596;2022-09-09T05:08:35;14.40;99.90
19522;DHT22;9905;52.126;5.596;2022-09-09T05:11:02;14.40;99.90
19522;DHT22;9905;52.126;5.596;2022-09-09T05:13:29;14.40;99.90
19522;DHT22;9905;52.126;5.596;2022-09-09T05:15:57;14.40;99.90
19522;DHT22;9905;52.126;5.596;2022-09-09T05:18:24;14.40;99.90
19522;DHT22;9905;52.126;5.596;2022-09-09T05:20:52;14.40;99.90
19522;DHT22;9905;52.126;5.596;2022-09-09T05:23:19;14.50;99.90
19522;DHT22;9905;52.126;5.596;2022-09-09T05:25:55;14.50;99.90
19522;DHT22;9905;52.126;5.596;2022-09-09T05:28:23;14.50;99.90
19522;DHT22;9905;52.126;5.596;2022-09-09T05:30:55;14.50;99.90
19522;DHT22;9905;52.126;5.596;2022-09-09T05:33:23;14.50;99.90
19522;DHT22;9905;52.126;5.596;2022-09-09T05:35:56;14.50;99.90
19522;DHT22;9905;52.126;5.596;2022-09-09T05:38:23;14.50;99.90
19522;DHT22;9905;52.126;5.596;2022-09-09T05:40:50;14.50;99.90
19522;DHT22;9905;52.126;5.596;2022-09-09T05:43:17;14.50;99.90
19522;DHT22;9905;52.126;5.596;2022-09-09T05:45:45;14.50;99.90
19522;DHT22;9905;52.126;5.596;2022-09-09T05:48:12;14.50;99.90
19522;DHT22;9905;52.126;5.596;2022-09-09T05:50:40;14.50;99.90
19522;DHT22;9905;52.126;5.596;2022-09-09T05:53:09;14.60;99.90
19522;DHT22;9905;52.126;5.596;2022-09-09T05:55:36;14.60;99.90
19522;DHT22;9905;52.126;5.596;2022-09-09T05:58:03;14.60;99.90
19522;DHT22;9905;52.126;5.596;2022-09-09T06:00:29;14.70;99.90
19522;DHT22;9905;52.126;5.596;2022-09-09T06:02:57;14.70;99.90
19522;DHT22;9905;52.126;5.596;2022-09-09T06:05:24;14.70;99.90
19522;DHT22;9905;52.126;5.596;2022-09-09T06:07:52;14.70;99.90
19522;DHT22;9905;52.126;5.596;2022-09-09T06:10:20;14.80;99.90
19522;DHT22;9905;52.126;5.596;2022-09-09T06:12:47;14.80;99.90
19522;DHT22;9905;52.126;5.596;2022-09-09T06:15:14;14.90;99.90
19522;DHT22;9905;52.126;5.596;2022-09-09T06:17:41;14.90;99.90
19522;DHT22;9905;52.126;5.596;2022-09-09T06:20:08;15.00;99.90
19522;DHT22;9905;52.126;5.596;2022-09-09T06:22:35;15.00;99.90
19522;DHT22;9905;52.126;5.596;2022-09-09T06:25:02;15.10;99.90
19522;DHT22;9905;52.126;5.596;2022-09-09T06:27:30;15.10;99.90
19522;DHT22;9905;52.126;5.596;2022-09-09T06:29:57;15.20;99.90
19522;DHT22;9905;52.126;5.596;2022-09-09T06:32:23;15.20;99.90
19522;DHT22;9905;52.126;5.596;2022-09-09T06:34:52;15.30;99.90
19522;DHT22;9905;52.126;5.596;2022-09-09T06:37:19;15.30;99.90
19522;DHT22;9905;52.126;5.596;2022-09-09T06:39:46;15.30;99.90
19522;DHT22;9905;52.126;5.596;2022-09-09T06:42:13;15.40;99.90
19522;DHT22;9905;52.126;5.596;2022-09-09T06:44:42;15.50;99.90
19522;DHT22;9905;52.126;5.596;2022-09-09T06:47:09;15.50;99.90
19522;DHT22;9905;52.126;5.596;2022-09-09T06:49:36;15.50;99.90
19522;DHT22;9905;52.126;5.596;2022-09-09T06:52:03;15.60;99.90
19522;DHT22;9905;52.126;5.596;2022-09-09T06:54:29;15.70;99.90
19522;DHT22;9905;52.126;5.596;2022-09-09T06:56:56;15.70;99.90
19522;DHT22;9905;52.126;5.596;2022-09-09T06:59:23;15.80;99.90
19522;DHT22;9905;52.126;5.596;2022-09-09T07:01:52;15.80;99.90
19522;DHT22;9905;52.126;5.596;2022-09-09T07:04:20;15.90;99.90
19522;DHT22;9905;52.126;5.596;2022-09-09T07:06:46;15.90;99.90
19522;DHT22;9905;52.126;5.596;2022-09-09T07:09:15;15.90;99.90
19522;DHT22;9905;52.126;5.596;2022-09-09T07:11:43;16.00;99.90
19522;DHT22;9905;52.126;5.596;2022-09-09T07:14:11;16.10;99.90
19522;DHT22;9905;52.126;5.596;2022-09-09T07:16:39;16.20;99.90
19522;DHT22;9905;52.126;5.596;2022-09-09T07:19:07;16.20;99.90
19522;DHT22;9905;52.126;5.596;2022-09-09T07:21:34;16.30;99.90
19522;DHT22;9905;52.126;5.596;2022-09-09T07:24:02;16.30;99.90
19522;DHT22;9905;52.126;5.596;2022-09-09T07:26:32;16.40;99.90
19522;DHT22;9905;52.126;5.596;2022-09-09T07:28:59;16.30;99.90
19522;DHT22;9905;52.126;5.596;2022-09-09T07:31:28;16.30;99.90
19522;DHT22;9905;52.126;5.596;2022-09-09T07:33:56;16.40;99.90
19522;DHT22;9905;52.126;5.596;2022-09-09T07:36:26;16.60;99.90
19522;DHT22;9905;52.126;5.596;2022-09-09T07:38:55;16.60;99.90
19522;DHT22;9905;52.126;5.596;2022-09-09T07:41:24;16.60;99.90
19522;DHT22;9905;52.126;5.596;2022-09-09T07:43:52;16.60;99.90
19522;DHT22;9905;52.126;5.596;2022-09-09T07:46:21;16.70;99.90
19522;DHT22;9905;52.126;5.596;2022-09-09T07:48:50;16.70;99.90
19522;DHT22;9905;52.126;5.596;2022-09-09T07:51:19;16.70;99.90
19522;DHT22;9905;52.126;5.596;2022-09-09T07:53:52;16.70;99.90
19522;DHT22;9905;52.126;5.596;2022-09-09T07:56:19;16.70;99.90
19522;DHT22;9905;52.126;5.596;2022-09-09T07:58:49;16.70;99.90
19522;DHT22;9905;52.126;5.596;2022-09-09T08:01:19;16.70;99.90
19522;DHT22;9905;52.126;5.596;2022-09-09T08:03:46;16.70;99.90
19522;DHT22;9905;52.126;5.596;2022-09-09T08:06:13;16.80;99.90
19522;DHT22;9905;52.126;5.596;2022-09-09T08:08:41;16.80;99.90
19522;DHT22;9905;52.126;5.596;2022-09-09T08:11:12;16.90;99.90
19522;DHT22;9905;52.126;5.596;2022-09-09T08:13:40;16.90;99.90
19522;DHT22;9905;52.126;5.596;2022-09-09T08:16:09;16.80;99.90
19522;DHT22;9905;52.126;5.596;2022-09-09T08:18:37;16.90;99.90
19522;DHT22;9905;52.126;5.596;2022-09-09T08:21:09;16.80;99.90
19522;DHT22;9905;52.126;5.596;2022-09-09T08:23:37;16.90;99.90
19522;DHT22;9905;52.126;5.596;2022-09-09T08:26:06;16.90;99.90
19522;DHT22;9905;52.126;5.596;2022-09-09T08:28:35;16.90;99.90
19522;DHT22;9905;52.126;5.596;2022-09-09T08:31:07;16.80;99.90
19522;DHT22;9905;52.126;5.596;2022-09-09T08:33:34;16.90;99.90
19522;DHT22;9905;52.126;5.596;2022-09-09T08:36:04;16.80;99.90
19522;DHT22;9905;52.126;5.596;2022-09-09T08:38:31;16.90;99.90
19522;DHT22;9905;52.126;5.596;2022-09-09T08:41:06;16.90;99.90
19522;DHT22;9905;52.126;5.596;2022-09-09T08:43:36;17.00;99.90
19522;DHT22;9905;52.126;5.596;2022-09-09T08:46:07;17.00;99.90
19522;DHT22;9905;52.126;5.596;2022-09-09T08:48:44;17.10;99.90
19522;DHT22;9905;52.126;5.596;2022-09-09T08:51:13;17.10;99.90
19522;DHT22;9905;52.126;5.596;2022-09-09T08:53:43;17.00;99.90
19522;DHT22;9905;52.126;5.596;2022-09-09T08:56:14;17.00;99.90
19522;DHT22;9905;52.126;5.596;2022-09-09T08:58:47;17.10;99.90
19522;DHT22;9905;52.126;5.596;2022-09-09T09:01:29;17.00;99.90
19522;DHT22;9905;52.126;5.596;2022-09-09T09:04:05;17.10;99.90
19522;DHT22;9905;52.126;5.596;2022-09-09T09:06:44;17.10;99.90
19522;DHT22;9905;52.126;5.596;2022-09-09T09:09:20;17.10;99.90
19522;DHT22;9905;52.126;5.596;2022-09-09T09:11:49;17.10;99.90
19522;DHT22;9905;52.126;5.596;2022-09-09T09:14:20;17.10;99.90
19522;DHT22;9905;52.126;5.596;2022-09-09T09:16:52;17.10;99.90
19522;DHT22;9905;52.126;5.596;2022-09-09T09:19:19;17.10;99.90
19522;DHT22;9905;52.126;5.596;2022-09-09T09:21:51;17.00;99.90
19522;DHT22;9905;52.126;5.596;2022-09-09T09:24:25;17.10;99.90
19522;DHT22;9905;52.126;5.596;2022-09-09T09:26:53;17.10;99.90
19522;DHT22;9905;52.126;5.596;2022-09-09T09:29:24;17.10;99.90
19522;DHT22;9905;52.126;5.596;2022-09-09T09:31:55;17.10;99.90
19522;DHT22;9905;52.126;5.596;2022-09-09T09:34:23;17.10;99.90
19522;DHT22;9905;52.126;5.596;2022-09-09T09:36:54;17.20;99.90
19522;DHT22;9905;52.126;5.596;2022-09-09T09:39:25;17.30;99.90
19522;DHT22;9905;52.126;5.596;2022-09-09T09:41:52;17.30;99.90
19522;DHT22;9905;52.126;5.596;2022-09-09T09:44:25;17.30;99.90
19522;DHT22;9905;52.126;5.596;2022-09-09T09:46:53;17.30;99.90
19522;DHT22;9905;52.126;5.596;2022-09-09T09:49:31;17.40;99.90
19522;DHT22;9905;52.126;5.596;2022-09-09T09:52:00;17.40;99.90
19522;DHT22;9905;52.126;5.596;2022-09-09T09:54:28;17.40;99.90
19522;DHT22;9905;52.126;5.596;2022-09-09T09:56:56;17.40;99.90
19522;DHT22;9905;52.126;5.596;2022-09-09T09:59:34;17.50;99.90
19522;DHT22;9905;52.126;5.596;2022-09-09T10:02:16;17.50;99.90
19522;DHT22;9905;52.126;5.596;2022-09-09T10:04:43;17.50;99.90
19522;DHT22;9905;52.126;5.596;2022-09-09T10:07:11;17.60;99.90
19522;DHT22;9905;52.126;5.596;2022-09-09T10:09:38;17.60;99.90
19522;DHT22;9905;52.126;5.596;2022-09-09T10:12:11;17.60;99.90
19522;DHT22;9905;52.126;5.596;2022-09-09T10:14:49;17.60;99.90
19522;DHT22;9905;52.126;5.596;2022-09-09T10:17:24;17.60;99.90
19522;DHT22;9905;52.126;5.596;2022-09-09T10:20:04;17.60;99.90
19522;DHT22;9905;52.126;5.596;2022-09-09T10:22:39;17.60;99.90
19522;DHT22;9905;52.126;5.596;2022-09-09T10:25:45;17.60;99.90
19522;DHT22;9905;52.126;5.596;2022-09-09T10:28:30;17.50;99.90
19522;DHT22;9905;52.126;5.596;2022-09-09T10:31:08;17.60;99.90
19522;DHT22;9905;52.126;5.596;2022-09-09T10:33:45;17.60;99.90
19522;DHT22;9905;52.126;5.596;2022-09-09T10:36:19;17.50;99.90
19522;DHT22;9905;52.126;5.596;2022-09-09T10:38:48;17.50;99.90
19522;DHT22;9905;52.126;5.596;2022-09-09T10:41:20;17.60;99.90
19522;DHT22;9905;52.126;5.596;2022-09-09T10:47:14;17.60;99.90
19522;DHT22;9905;52.126;5.596;2022-09-09T10:50:03;17.60;99.90
19522;DHT22;9905;52.126;5.596;2022-09-09T10:52:36;17.60;99.90
19522;DHT22;9905;52.126;5.596;2022-09-09T10:55:10;17.50;99.90
19522;DHT22;9905;52.126;5.596;2022-09-09T10:57:42;17.10;99.90
19522;DHT22;9905;52.126;5.596;2022-09-09T11:00:16;16.80;99.90
19522;DHT22;9905;52.126;5.596;2022-09-09T11:02:47;16.70;99.90
19522;DHT22;9905;52.126;5.596;2022-09-09T11:05:19;16.80;99.90
19522;DHT22;9905;52.126;5.596;2022-09-09T11:07:49;16.90;99.90
19522;DHT22;9905;52.126;5.596;2022-09-09T11:10:24;16.90;99.90
19522;DHT22;9905;52.126;5.596;2022-09-09T11:12:53;16.90;99.90
19522;DHT22;9905;52.126;5.596;2022-09-09T11:15:28;16.90;99.90
19522;DHT22;9905;52.126;5.596;2022-09-09T11:18:01;17.00;99.90
19522;DHT22;9905;52.126;5.596;2022-09-09T11:20:28;17.20;99.90
19522;DHT22;9905;52.126;5.596;2022-09-09T11:22:58;17.20;99.90
19522;DHT22;9905;52.126;5.596;2022-09-09T11:25:30;17.30;99.90
19522;DHT22;9905;52.126;5.596;2022-09-09T11:28:22;17.60;99.90
19522;DHT22;9905;52.126;5.596;2022-09-09T11:31:00;17.70;99.90
19522;DHT22;9905;52.126;5.596;2022-09-09T11:33:42;17.80;99.90
19522;DHT22;9905;52.126;5.596;2022-09-09T11:36:26;17.70;99.90
19522;DHT22;9905;52.126;5.596;2022-09-09T11:38:59;17.70;99.90
19522;DHT22;9905;52.126;5.596;2022-09-09T11:41:34;17.60;99.90
19522;DHT22;9905;52.126;5.596;2022-09-09T11:44:10;17.70;99.90
19522;DHT22;9905;52.126;5.596;2022-09-09T11:46:39;17.80;99.90
19522;DHT22;9905;52.126;5.596;2022-09-09T11:49:28;17.90;99.90
19522;DHT22;9905;52.126;5.596;2022-09-09T11:51:56;18.10;99.90
19522;DHT22;9905;52.126;5.596;2022-09-09T11:54:31;18.10;99.90
19522;DHT22;9905;52.126;5.596;2022-09-09T11:56:58;18.10;99.90
19522;DHT22;9905;52.126;5.596;2022-09-09T11:59:27;18.00;99.90
19522;DHT22;9905;52.126;5.596;2022-09-09T12:01:56;18.00;99.90
19522;DHT22;9905;52.126;5.596;2022-09-09T12:04:34;17.90;99.90
19522;DHT22;9905;52.126;5.596;2022-09-09T12:07:04;18.00;99.90
19522;DHT22;9905;52.126;5.596;2022-09-09T12:09:43;18.10;99.90
19522;DHT22;9905;52.126;5.596;2022-09-09T12:12:26;18.20;99.90
19522;DHT22;9905;52.126;5.596;2022-09-09T12:15:03;18.20;99.90
19522;DHT22;9905;52.126;5.596;2022-09-09T12:17:44;18.20;99.90
19522;DHT22;9905;52.126;5.596;2022-09-09T12:20:15;18.20;99.90
19522;DHT22;9905;52.126;5.596;2022-09-09T12:22:55;18.20;99.90
19522;DHT22;9905;52.126;5.596;2022-09-09T12:25:30;18.20;99.90
19522;DHT22;9905;52.126;5.596;2022-09-09T12:28:04;18.00;99.90
19522;DHT22;9905;52.126;5.596;2022-09-09T12:30:37;17.90;99.90
19522;DHT22;9905;52.126;5.596;2022-09-09T12:33:11;17.80;99.90
19522;DHT22;9905;52.126;5.596;2022-09-09T12:35:42;17.60;99.90
19522;DHT22;9905;52.126;5.596;2022-09-09T12:38:13;17.60;99.90
19522;DHT22;9905;52.126;5.596;2022-09-09T12:40:42;17.60;99.90
19522;DHT22;9905;52.126;5.596;2022-09-09T12:43:17;17.70;99.90
19522;DHT22;9905;52.126;5.596;2022-09-09T12:45:45;17.70;99.90
19522;DHT22;9905;52.126;5.596;2022-09-09T12:48:12;17.60;99.90
19522;DHT22;9905;52.126;5.596;2022-09-09T12:50:47;17.60;99.90
19522;DHT22;9905;52.126;5.596;2022-09-09T12:53:22;17.70;99.90
19522;DHT22;9905;52.126;5.596;2022-09-09T12:55:53;17.80;99.90
19522;DHT22;9905;52.126;5.596;2022-09-09T12:58:21;17.90;99.90
19522;DHT22;9905;52.126;5.596;2022-09-09T13:00:49;17.80;99.90
19522;DHT22;9905;52.126;5.596;2022-09-09T13:03:18;17.80;99.90
19522;DHT22;9905;52.126;5.596;2022-09-09T13:05:48;17.80;99.90
19522;DHT22;9905;52.126;5.596;2022-09-09T13:08:16;17.80;99.90
19522;DHT22;9905;52.126;5.596;2022-09-09T13:10:48;17.80;99.90
19522;DHT22;9905;52.126;5.596;2022-09-09T13:13:20;17.70;99.90
19522;DHT22;9905;52.126;5.596;2022-09-09T13:15:50;17.70;99.90
19522;DHT22;9905;52.126;5.596;2022-09-09T13:18:21;17.70;99.90
19522;DHT22;9905;52.126;5.596;2022-09-09T13:20:50;17.70;99.90
19522;DHT22;9905;52.126;5.596;2022-09-09T13:23:19;17.70;99.90
19522;DHT22;9905;52.126;5.596;2022-09-09T13:25:54;17.60;99.90
19522;DHT22;9905;52.126;5.596;2022-09-09T13:28:23;17.60;99.90
19522;DHT22;9905;52.126;5.596;2022-09-09T13:30:56;17.60;99.90
19522;DHT22;9905;52.126;5.596;2022-09-09T13:33:29;17.60;99.90
19522;DHT22;9905;52.126;5.596;2022-09-09T13:35:59;17.60;99.90
19522;DHT22;9905;52.126;5.596;2022-09-09T13:38:29;17.60;99.90
19522;DHT22;9905;52.126;5.596;2022-09-09T13:40:58;17.60;99.90
19522;DHT22;9905;52.126;5.596;2022-09-09T13:43:28;17.70;99.90
19522;DHT22;9905;52.126;5.596;2022-09-09T13:45:56;17.70;99.90
19522;DHT22;9905;52.126;5.596;2022-09-09T13:48:24;17.80;99.90
19522;DHT22;9905;52.126;5.596;2022-09-09T13:50:58;17.80;99.90
19522;DHT22;9905;52.126;5.596;2022-09-09T13:53:25;17.90;99.90
19522;DHT22;9905;52.126;5.596;2022-09-09T13:55:52;18.00;99.90
19522;DHT22;9905;52.126;5.596;2022-09-09T13:58:19;18.00;99.90
19522;DHT22;9905;52.126;5.596;2022-09-09T14:00:48;18.10;99.90
19522;DHT22;9905;52.126;5.596;2022-09-09T14:03:15;18.10;99.90
19522;DHT22;9905;52.126;5.596;2022-09-09T14:05:43;18.10;99.90
19522;DHT22;9905;52.126;5.596;2022-09-09T14:08:17;18.20;99.90
19522;DHT22;9905;52.126;5.596;2022-09-09T14:10:45;18.10;99.90
19522;DHT22;9905;52.126;5.596;2022-09-09T14:13:12;18.10;99.90
19522;DHT22;9905;52.126;5.596;2022-09-09T14:15:38;18.20;99.90
19522;DHT22;9905;52.126;5.596;2022-09-09T14:18:10;18.20;99.90
19522;DHT22;9905;52.126;5.596;2022-09-09T14:20:37;18.20;99.90
19522;DHT22;9905;52.126;5.596;2022-09-09T14:23:04;18.20;99.90
19522;DHT22;9905;52.126;5.596;2022-09-09T14:25:32;18.30;99.90
19522;DHT22;9905;52.126;5.596;2022-09-09T14:27:59;18.30;99.90
19522;DHT22;9905;52.126;5.596;2022-09-09T14:30:27;18.40;99.90
19522;DHT22;9905;52.126;5.596;2022-09-09T14:32:54;18.50;99.90
19522;DHT22;9905;52.126;5.596;2022-09-09T14:35:21;18.50;99.90
19522;DHT22;9905;52.126;5.596;2022-09-09T14:37:47;18.60;99.90
19522;DHT22;9905;52.126;5.596;2022-09-09T14:40:14;18.70;99.90
19522;DHT22;9905;52.126;5.596;2022-09-09T14:42:43;18.60;99.90
19522;DHT22;9905;52.126;5.596;2022-09-09T14:45:11;18.60;99.90
19522;DHT22;9905;52.126;5.596;2022-09-09T14:47:37;18.70;99.90
19522;DHT22;9905;52.126;5.596;2022-09-09T14:50:05;18.80;99.90
19522;DHT22;9905;52.126;5.596;2022-09-09T14:52:33;18.90;99.90
19522;DHT22;9905;52.126;5.596;2022-09-09T14:55:00;18.90;99.90
19522;DHT22;9905;52.126;5.596;2022-09-09T14:57:27;18.90;99.90
19522;DHT22;9905;52.126;5.596;2022-09-09T14:59:55;18.90;99.90
19522;DHT22;9905;52.126;5.596;2022-09-09T15:02:22;18.90;99.90
19522;DHT22;9905;52.126;5.596;2022-09-09T15:04:48;18.90;99.90
19522;DHT22;9905;52.126;5.596;2022-09-09T15:07:16;18.90;99.90
19522;DHT22;9905;52.126;5.596;2022-09-09T15:09:44;18.90;99.90
19522;DHT22;9905;52.126;5.596;2022-09-09T15:12:13;18.80;99.90
19522;DHT22;9905;52.126;5.596;2022-09-09T15:14:39;18.80;99.90
19522;DHT22;9905;52.126;5.596;2022-09-09T15:17:07;18.70;99.90
19522;DHT22;9905;52.126;5.596;2022-09-09T15:19:34;18.80;99.90
19522;DHT22;9905;52.126;5.596;2022-09-09T15:22:02;18.80;99.90
19522;DHT22;9905;52.126;5.596;2022-09-09T15:24:31;18.80;99.90
19522;DHT22;9905;52.126;5.596;2022-09-09T15:26:57;18.80;99.90
19522;DHT22;9905;52.126;5.596;2022-09-09T15:29:24;18.70;99.90
19522;DHT22;9905;52.126;5.596;2022-09-09T15:31:52;18.80;99.90
19522;DHT22;9905;52.126;5.596;2022-09-09T15:34:21;18.90;99.90
19522;DHT22;9905;52.126;5.596;2022-09-09T15:36:48;19.00;99.90
19522;DHT22;9905;52.126;5.596;2022-09-09T15:39:16;19.10;99.90
19522;DHT22;9905;52.126;5.596;2022-09-09T15:41:44;19.20;99.90
19522;DHT22;9905;52.126;5.596;2022-09-09T15:44:11;19.40;99.90
19522;DHT22;9905;52.126;5.596;2022-09-09T15:46:39;19.50;99.90
19522;DHT22;9905;52.126;5.596;2022-09-09T15:49:08;19.70;99.90
19522;DHT22;9905;52.126;5.596;2022-09-09T15:51:38;19.90;99.90
19522;DHT22;9905;52.126;5.596;2022-09-09T15:54:05;20.00;99.90
19522;DHT22;9905;52.126;5.596;2022-09-09T15:56:32;20.10;99.90
19522;DHT22;9905;52.126;5.596;2022-09-09T15:59:01;20.10;99.90
19522;DHT22;9905;52.126;5.596;2022-09-09T16:01:29;20.00;99.90
19522;DHT22;9905;52.126;5.596;2022-09-09T16:03:56;19.90;99.90
19522;DHT22;9905;52.126;5.596;2022-09-09T16:06:24;19.70;99.90
19522;DHT22;9905;52.126;5.596;2022-09-09T16:08:56;19.60;99.90